Time;durP1;ratioP1;P1;durP2;ratioP2;P2;SDS_P1;SDS_P2;PMS_P1;PMS_P2;Temp;Humidity;BMP_temperature;BMP_pressure;BME280_temperature;BME280_humidity;BME280_pressure;Samples;Min_cycle;Max_cycle;Signal;HPM_P1;HPM_P2
2023/07/23 00:00:14;;;;;;;7.70;3.10;;;;;;;26.23;63.21;100239.05;108032;1287;21986;-59
2023/07/23 00:02:40;;;;;;;5.70;3.30;;;;;;;26.20;63.12;100246.02;108037;1288;21989;-60
2023/07/23 00:05:06;;;;;;;5.10;3.60;;;;;;;26.16;63.47;100240.89;108131;1285;21989;-59
2023/07/23 00:07:32;;;;;;;6.90;3.50;;;;;;;26.13;63.64;100245.61;108138;1288;21989;-67
2023/07/23 00:09:57;;;;;;;4.80;3.10;;;;;;;26.10;63.35;100249.81;108118;1284;22728;-67
2023/07/23 00:12:23;;;;;;;6.40;3.50;;;;;;;26.05;63.31;100255.92;108081;1282;22000;-59
2023/07/23 00:14:49;;;;;;;8.40;4.40;;;;;;;26.02;63.40;100251.56;108068;1288;21993;-59
2023/07/23 00:17:14;;;;;;;5.60;4.00;;;;;;;25.99;63.23;100247.26;108069;1285;21999;-60
2023/07/23 00:19:40;;;;;;;7.10;3.80;;;;;;;25.95;62.88;100247.58;108072;1282;21996;-66
2023/07/23 00:22:05;;;;;;;5.30;3.80;;;;;;;25.91;62.56;100249.17;108059;1278;22002;-67
2023/07/23 00:24:31;;;;;;;7.50;3.80;;;;;;;25.84;62.15;100250.20;108070;1288;22010;-67
2023/07/23 00:26:56;;;;;;;5.90;4.20;;;;;;;25.75;62.22;100244.83;108060;1286;21994;-59
2023/07/23 00:29:22;;;;;;;5.30;3.90;;;;;;;25.71;62.38;100242.81;108090;1288;22006;-67
2023/07/23 00:31:47;;;;;;;5.80;3.50;;;;;;;25.69;62.75;100248.15;108071;1288;21999;-68
2023/07/23 00:34:13;;;;;;;4.90;3.40;;;;;;;25.68;62.61;100251.48;107982;1288;22010;-60
2023/07/23 00:36:39;;;;;;;5.30;3.50;;;;;;;25.68;62.70;100251.67;108074;1288;22005;-67
2023/07/23 00:39:05;;;;;;;5.50;3.60;;;;;;;25.65;62.88;100253.47;108084;1288;21994;-59
2023/07/23 00:41:31;;;;;;;6.30;3.80;;;;;;;25.62;62.87;100260.59;108124;1285;22032;-59
2023/07/23 00:43:57;;;;;;;6.00;3.60;;;;;;;25.58;63.05;100258.55;108107;1279;22140;-60
2023/07/23 00:46:22;;;;;;;5.60;3.90;;;;;;;25.56;63.07;100257.46;108068;1283;21988;-67
2023/07/23 00:48:48;;;;;;;8.30;4.00;;;;;;;25.51;62.98;100257.60;108073;1288;21961;-67
2023/07/23 00:51:15;;;;;;;6.00;3.80;;;;;;;25.48;63.02;100258.91;108057;1285;21991;-59
2023/07/23 00:53:40;;;;;;;5.80;3.90;;;;;;;25.47;63.01;100262.66;108108;1288;21989;-60
2023/07/23 00:56:06;;;;;;;6.20;3.80;;;;;;;25.44;62.96;100271.80;108104;1288;21989;-60
2023/07/23 00:58:32;;;;;;;4.70;4.10;;;;;;;25.42;62.93;100284.01;108085;1287;21993;-62
2023/07/23 01:00:58;;;;;;;5.70;4.10;;;;;;;25.36;62.74;100291.75;108102;1287;21997;-66
2023/07/23 01:03:24;;;;;;;6.10;3.90;;;;;;;25.26;62.59;100296.70;107982;1287;22020;-60
2023/07/23 01:05:49;;;;;;;7.00;3.50;;;;;;;25.13;62.53;100297.83;108075;1286;21987;-59
2023/07/23 01:08:15;;;;;;;7.50;4.00;;;;;;;25.03;62.68;100291.73;107971;1281;23458;-67
2023/07/23 01:10:41;;;;;;;5.40;3.60;;;;;;;24.99;63.09;100286.69;107981;1288;21980;-67
2023/07/23 01:13:06;;;;;;;5.50;3.60;;;;;;;24.98;63.52;100289.06;108078;1284;21988;-67
2023/07/23 01:15:32;;;;;;;6.20;3.90;;;;;;;24.99;63.45;100291.66;107971;1286;22034;-67
2023/07/23 01:17:57;;;;;;;6.40;3.80;;;;;;;24.97;63.23;100293.09;107981;1287;22030;-67
2023/07/23 01:20:23;;;;;;;6.00;3.80;;;;;;;24.94;63.21;100292.02;108005;1288;21996;-60
2023/07/23 01:22:48;;;;;;;6.20;3.50;;;;;;;24.93;63.41;100294.77;108072;1288;22458;-67
2023/07/23 01:25:14;;;;;;;4.50;3.50;;;;;;;24.89;63.03;100298.49;108053;1287;21994;-67
2023/07/23 01:27:40;;;;;;;7.40;3.60;;;;;;;24.86;62.90;100304.14;108088;1288;21992;-67
2023/07/23 01:30:10;;;;;;;7.90;3.50;;;;;;;24.84;63.17;100297.42;108035;1285;21995;-67
2023/07/23 01:32:40;;;;;;;6.30;3.70;;;;;;;24.82;62.98;100293.63;108128;1280;22921;-67
2023/07/23 01:35:09;;;;;;;5.50;4.10;;;;;;;24.80;62.92;100293.76;108044;1288;21995;-60
2023/07/23 01:37:35;;;;;;;6.50;3.60;;;;;;;24.78;63.15;100295.91;108110;1280;22742;-60
2023/07/23 01:40:01;;;;;;;6.50;4.20;;;;;;;24.76;63.22;100303.77;108143;1288;22001;-66
2023/07/23 01:42:26;;;;;;;7.10;4.00;;;;;;;24.75;63.26;100306.20;107863;1288;21992;-60
2023/07/23 01:44:52;;;;;;;4.80;3.80;;;;;;;24.74;63.49;100309.98;107801;1281;22550;-60
2023/07/23 01:47:17;;;;;;;5.10;4.10;;;;;;;24.74;63.51;100312.19;108048;1288;22093;-66
2023/07/23 01:49:43;;;;;;;7.10;4.20;;;;;;;24.73;63.55;100317.25;108067;1283;22084;-59
2023/07/23 01:52:08;;;;;;;4.40;3.60;;;;;;;24.72;63.67;100323.23;108073;1284;22054;-59
2023/07/23 01:54:34;;;;;;;8.80;3.90;;;;;;;24.70;63.57;100329.27;108082;1288;21993;-66
2023/07/23 01:57:01;;;;;;;6.20;4.00;;;;;;;24.69;63.63;100332.61;108074;1288;21996;-66
2023/07/23 01:59:26;;;;;;;5.80;3.90;;;;;;;24.68;63.59;100333.92;108151;1288;21991;-60
2023/07/23 02:01:52;;;;;;;5.00;3.80;;;;;;;24.65;63.66;100333.38;108025;1286;21990;-59
2023/07/23 02:04:17;;;;;;;5.50;3.90;;;;;;;24.62;63.43;100329.86;108053;1288;21993;-66
2023/07/23 02:06:43;;;;;;;5.50;4.10;;;;;;;24.60;63.73;100335.92;108095;1287;21996;-66
2023/07/23 02:09:09;;;;;;;7.10;3.60;;;;;;;24.59;63.93;100340.46;108117;1288;21986;-66
2023/07/23 02:11:34;;;;;;;7.50;3.40;;;;;;;24.59;63.88;100336.17;108128;1288;22001;-60
2023/07/23 02:14:00;;;;;;;6.40;3.60;;;;;;;24.59;63.77;100334.58;108053;1284;21991;-67
2023/07/23 02:16:25;;;;;;;7.10;3.80;;;;;;;24.59;63.80;100333.85;108007;1288;22103;-67
2023/07/23 02:18:51;;;;;;;6.20;3.90;;;;;;;24.56;63.57;100331.51;108040;1287;21995;-59
2023/07/23 02:21:17;;;;;;;7.10;3.90;;;;;;;24.49;63.03;100325.54;108045;1278;21992;-67
2023/07/23 02:23:44;;;;;;;4.40;3.80;;;;;;;24.41;62.72;100331.34;108060;1284;21997;-67
2023/07/23 02:26:10;;;;;;;7.00;3.50;;;;;;;24.32;62.56;100337.55;108098;1287;21997;-67
2023/07/23 02:28:40;;;;;;;8.40;4.80;;;;;;;24.24;62.89;100341.30;108072;1288;22010;-61
2023/07/23 02:31:06;;;;;;;5.50;4.20;;;;;;;24.18;62.87;100346.06;108036;1286;22450;-59
2023/07/23 02:33:31;;;;;;;6.40;3.90;;;;;;;24.14;63.02;100346.89;108022;1280;22000;-60
2023/07/23 02:35:57;;;;;;;5.20;4.00;;;;;;;24.12;63.45;100348.05;108062;1288;21990;-59
2023/07/23 02:38:22;;;;;;;6.30;4.30;;;;;;;24.11;63.84;100344.01;108077;1278;21992;-66
2023/07/23 02:40:48;;;;;;;7.90;4.20;;;;;;;24.11;64.04;100345.45;108063;1288;21993;-66
2023/07/23 02:43:13;;;;;;;7.40;3.90;;;;;;;24.13;64.26;100347.48;108079;1280;23061;-59
2023/07/23 02:45:39;;;;;;;8.60;4.30;;;;;;;24.15;64.22;100354.16;108075;1286;22029;-59
2023/07/23 02:48:06;;;;;;;8.50;4.40;;;;;;;24.17;64.32;100353.98;108108;1288;21988;-60
2023/07/23 02:50:32;;;;;;;5.00;3.50;;;;;;;24.18;64.33;100354.07;108069;1280;21992;-66
2023/07/23 02:52:57;;;;;;;7.20;4.40;;;;;;;24.20;64.45;100355.57;108026;1286;21988;-60
2023/07/23 02:55:25;;;;;;;7.00;3.70;;;;;;;24.23;64.41;100352.37;108022;1288;21990;-67
2023/07/23 02:57:51;;;;;;;6.90;4.10;;;;;;;24.25;64.54;100350.94;108014;1288;21997;-61
2023/07/23 03:00:20;;;;;;;5.70;4.30;;;;;;;24.28;64.72;100348.54;108060;1283;21987;-60
2023/07/23 03:02:47;;;;;;;6.20;4.20;;;;;;;24.33;64.85;100351.46;108097;1288;21985;-60
2023/07/23 03:05:13;;;;;;;6.60;4.50;;;;;;;24.36;64.97;100355.54;108029;1288;21995;-59
2023/07/23 03:07:38;;;;;;;7.80;4.80;;;;;;;24.39;65.04;100358.94;108024;1288;21995;-61
2023/07/23 03:10:04;;;;;;;6.90;4.40;;;;;;;24.42;65.38;100361.02;108114;1288;22000;-59
2023/07/23 03:12:32;;;;;;;5.70;4.40;;;;;;;24.46;65.28;100362.42;108072;1286;21995;-61
2023/07/23 03:14:57;;;;;;;6.60;5.00;;;;;;;24.50;65.64;100363.38;108105;1288;21958;-66
2023/07/23 03:17:23;;;;;;;8.00;4.50;;;;;;;24.53;65.53;100363.86;108055;1288;22001;-59
2023/07/23 03:19:49;;;;;;;6.00;4.60;;;;;;;24.57;65.38;100362.53;108273;1283;21990;-68
2023/07/23 03:22:14;;;;;;;5.20;4.70;;;;;;;24.61;65.52;100361.30;108196;1288;22022;-67
2023/07/23 03:24:40;;;;;;;6.90;4.70;;;;;;;24.65;65.90;100362.82;108094;1289;21994;-60
2023/07/23 03:27:06;;;;;;;7.50;5.10;;;;;;;24.70;65.96;100364.83;108098;1277;22594;-61
2023/07/23 03:29:31;;;;;;;7.20;5.30;;;;;;;24.76;66.07;100366.92;108038;1286;21999;-60
2023/07/23 03:31:57;;;;;;;7.80;5.60;;;;;;;24.81;66.31;100370.34;108028;1287;21977;-68
2023/07/23 03:34:22;;;;;;;8.60;6.10;;;;;;;24.87;66.16;100371.30;108069;1284;21993;-68
2023/07/23 03:36:48;;;;;;;11.10;7.60;;;;;;;24.93;66.36;100372.14;108065;1288;21995;-60
2023/07/23 03:39:16;;;;;;;16.30;10.20;;;;;;;25.00;66.53;100375.21;108040;1288;21991;-61
2023/07/23 03:41:42;;;;;;;36.10;19.20;;;;;;;25.09;66.66;100380.38;108081;1287;22027;-61
2023/07/23 03:44:08;;;;;;;48.60;27.10;;;;;;;25.17;66.75;100385.69;108155;1283;21992;-61
2023/07/23 03:46:41;;;;;;;44.80;26.30;;;;;;;25.23;66.91;100381.27;108093;1287;21992;-68
2023/07/23 03:49:07;;;;;;;45.50;27.20;;;;;;;25.31;67.00;100383.98;108092;1286;21989;-67
2023/07/23 03:51:32;;;;;;;38.50;23.40;;;;;;;25.37;67.05;100386.34;108207;1283;21988;-68
2023/07/23 03:53:58;;;;;;;30.70;19.40;;;;;;;25.45;67.40;100384.02;108066;1283;21997;-68
2023/07/23 03:56:23;;;;;;;23.90;17.00;;;;;;;25.51;67.36;100381.20;108075;1286;21995;-68
2023/07/23 03:58:49;;;;;;;22.50;15.70;;;;;;;25.59;67.38;100383.67;108067;1288;21999;-68
2023/07/23 04:01:15;;;;;;;24.30;14.30;;;;;;;25.69;67.72;100382.73;108098;1288;22751;-60
2023/07/23 04:03:40;;;;;;;20.60;11.80;;;;;;;25.79;67.86;100385.98;108101;1288;22027;-61
2023/07/23 04:06:06;;;;;;;14.70;10.20;;;;;;;25.88;67.88;100388.28;107965;1288;21986;-67
2023/07/23 04:08:31;;;;;;;12.80;8.00;;;;;;;25.99;68.04;100387.83;108107;1283;22239;-59
2023/07/23 04:10:57;;;;;;;11.40;8.30;;;;;;;26.10;68.07;100384.14;108078;1284;21990;-65
2023/07/23 04:13:22;;;;;;;15.70;10.90;;;;;;;26.19;68.05;100379.83;108112;1283;21988;-58
2023/07/23 04:15:48;;;;;;;16.80;10.40;;;;;;;26.35;68.16;100377.88;108085;1288;21981;-67
2023/07/23 04:18:14;;;;;;;24.80;10.30;;;;;;;26.60;67.98;100375.56;108054;1286;22027;-67
2023/07/23 04:20:40;;;;;;;44.60;10.60;;;;;;;26.88;67.65;100374.42;108050;1283;21993;-67
2023/07/23 04:23:06;;;;;;;32.50;10.60;;;;;;;27.14;67.21;100376.61;108053;1287;22449;-67
2023/07/23 04:25:31;;;;;;;36.20;12.50;;;;;;;27.37;66.69;100379.48;108123;1288;22000;-67
2023/07/23 04:27:57;;;;;;;22.90;9.00;;;;;;;27.56;66.62;100382.79;108059;1288;22082;-59
2023/07/23 04:30:25;;;;;;;21.90;10.30;;;;;;;27.74;66.26;100383.80;108101;1288;22068;-59
2023/07/23 04:32:51;;;;;;;26.40;11.40;;;;;;;27.91;66.20;100381.77;108133;1286;21994;-69
2023/07/23 04:35:16;;;;;;;29.20;13.90;;;;;;;28.08;65.40;100383.21;108117;1288;22010;-59
2023/07/23 04:37:42;;;;;;;50.60;24.50;;;;;;;28.25;65.02;100386.36;108096;1287;21989;-67
2023/07/23 04:40:08;;;;;;;41.70;24.70;;;;;;;28.37;65.45;100388.70;108099;1288;21995;-65
2023/07/23 04:42:34;;;;;;;45.70;21.60;;;;;;;28.42;65.36;100389.15;108133;1280;21992;-66
2023/07/23 04:45:00;;;;;;;28.70;18.00;;;;;;;28.44;65.24;100394.09;108072;1284;22009;-66
2023/07/23 04:47:25;;;;;;;19.30;12.10;;;;;;;28.45;65.29;100395.08;108073;1284;21993;-64
2023/07/23 04:49:51;;;;;;;15.40;9.40;;;;;;;28.48;65.33;100395.70;108150;1277;22002;-59
2023/07/23 04:52:18;;;;;;;12.50;8.40;;;;;;;28.53;65.31;100398.50;108203;1280;22142;-59
2023/07/23 04:54:44;;;;;;;13.40;8.50;;;;;;;28.58;64.66;100404.05;108097;1288;21998;-66
2023/07/23 04:57:09;;;;;;;14.30;8.90;;;;;;;28.60;64.41;100404.35;108037;1288;22000;-66
2023/07/23 04:59:35;;;;;;;19.10;12.90;;;;;;;28.64;64.36;100400.63;108101;1287;22025;-67
2023/07/23 05:02:00;;;;;;;22.70;15.90;;;;;;;28.71;64.80;100400.94;108128;1284;22062;-61
2023/07/23 05:04:26;;;;;;;11.30;8.20;;;;;;;28.80;64.87;100403.55;108108;1284;21989;-67
2023/07/23 05:06:52;;;;;;;8.80;6.50;;;;;;;28.90;64.59;100407.09;107994;1283;21989;-59
2023/07/23 05:09:18;;;;;;;9.90;6.30;;;;;;;28.98;64.15;100410.11;108047;1284;21987;-66
2023/07/23 05:11:43;;;;;;;6.00;5.10;;;;;;;29.05;64.01;100417.95;108094;1288;21992;-60
2023/07/23 05:14:09;;;;;;;6.90;5.50;;;;;;;29.09;63.05;100426.06;108108;1284;21991;-67
2023/07/23 05:16:35;;;;;;;8.80;6.90;;;;;;;29.12;62.73;100433.84;108086;1284;21993;-59
2023/07/23 05:19:00;;;;;;;7.10;5.40;;;;;;;29.17;63.82;100433.84;108072;1284;21990;-59
2023/07/23 05:21:26;;;;;;;9.40;5.60;;;;;;;29.29;63.79;100433.50;108091;1287;22219;-66
2023/07/23 05:23:51;;;;;;;8.00;5.10;;;;;;;29.44;64.09;100427.88;108098;1287;22003;-59
2023/07/23 05:26:17;;;;;;;7.20;4.90;;;;;;;29.61;63.73;100426.69;108106;1288;21995;-59
2023/07/23 05:28:43;;;;;;;6.10;5.00;;;;;;;29.79;64.23;100424.13;108041;1288;21986;-59
2023/07/23 05:31:08;;;;;;;7.60;4.90;;;;;;;30.02;63.31;100421.64;108121;1283;21984;-59
2023/07/23 05:33:34;;;;;;;6.20;4.60;;;;;;;30.18;62.38;100423.02;108106;1284;21992;-59
2023/07/23 05:36:01;;;;;;;7.00;4.60;;;;;;;30.29;61.70;100423.10;108074;1287;21989;-67
2023/07/23 05:38:26;;;;;;;5.90;4.40;;;;;;;30.39;61.28;100425.05;108047;1284;22030;-60
2023/07/23 05:40:58;;;;;;;5.40;4.50;;;;;;;30.47;60.75;100425.55;108107;1277;22027;-66
2023/07/23 05:43:24;;;;;;;7.00;4.20;;;;;;;30.50;59.84;100421.68;108099;1275;22000;-67
2023/07/23 05:45:49;;;;;;;5.30;4.10;;;;;;;30.46;59.70;100426.02;108080;1287;22027;-67
2023/07/23 05:48:15;;;;;;;7.90;5.00;;;;;;;30.49;59.89;100423.77;108104;1284;22021;-59
2023/07/23 05:50:40;;;;;;;5.40;4.30;;;;;;;30.56;59.86;100422.90;108119;1284;21986;-61
2023/07/23 05:53:06;;;;;;;5.20;4.70;;;;;;;30.63;59.51;100424.11;108044;1284;21991;-60
2023/07/23 05:55:31;;;;;;;6.00;4.10;;;;;;;30.65;59.05;100432.77;108071;1288;21986;-59
2023/07/23 05:57:57;;;;;;;5.90;4.40;;;;;;;30.67;59.25;100443.61;108068;1287;21998;-59
2023/07/23 06:00:22;;;;;;;6.80;4.40;;;;;;;30.72;59.08;100450.36;108058;1285;21997;-67
2023/07/23 06:02:48;;;;;;;5.10;4.40;;;;;;;30.77;58.72;100456.09;108049;1288;21993;-60
2023/07/23 06:05:14;;;;;;;5.90;4.40;;;;;;;30.79;58.61;100459.08;108059;1279;21992;-67
2023/07/23 06:07:39;;;;;;;4.90;4.40;;;;;;;30.81;58.27;100461.61;108058;1283;22010;-59
2023/07/23 06:10:06;;;;;;;5.60;4.20;;;;;;;30.86;58.56;100462.05;108001;1283;21986;-60
2023/07/23 06:12:31;;;;;;;5.90;4.40;;;;;;;30.97;58.52;100467.70;108034;1287;22000;-61
2023/07/23 06:14:57;;;;;;;6.20;4.10;;;;;;;31.08;57.91;100472.08;108062;1288;21996;-60
2023/07/23 06:17:22;;;;;;;6.20;4.40;;;;;;;31.20;57.56;100467.44;108066;1284;21992;-60
2023/07/23 06:19:48;;;;;;;5.80;4.40;;;;;;;31.33;56.80;100470.03;108071;1284;21992;-61
2023/07/23 06:22:13;;;;;;;5.10;3.80;;;;;;;31.39;56.62;100473.26;108063;1284;21986;-69
2023/07/23 06:24:39;;;;;;;5.40;4.50;;;;;;;31.43;56.17;100470.77;108113;1286;21990;-68
2023/07/23 06:27:05;;;;;;;7.20;4.80;;;;;;;31.48;55.96;100465.95;108066;1286;21989;-61
2023/07/23 06:29:31;;;;;;;6.20;4.60;;;;;;;31.55;56.20;100459.80;108101;1283;22380;-68
2023/07/23 06:31:56;;;;;;;5.40;4.50;;;;;;;31.66;56.27;100459.13;108061;1283;21995;-69
2023/07/23 06:34:22;;;;;;;7.10;5.00;;;;;;;31.77;55.73;100459.46;108085;1288;21996;-61
2023/07/23 06:36:47;;;;;;;8.10;4.50;;;;;;;31.82;55.58;100462.02;108062;1284;21988;-68
2023/07/23 06:39:13;;;;;;;5.40;4.40;;;;;;;31.87;55.09;100465.91;108094;1278;21981;-69
2023/07/23 06:41:40;;;;;;;6.30;4.60;;;;;;;31.87;54.78;100464.63;108087;1287;21994;-61
2023/07/23 06:44:06;;;;;;;6.60;4.40;;;;;;;31.90;55.03;100466.35;108134;1288;21988;-61
2023/07/23 06:46:31;;;;;;;5.20;4.30;;;;;;;31.93;54.36;100464.41;108093;1288;21994;-68
2023/07/23 06:48:57;;;;;;;7.20;5.10;;;;;;;31.91;54.28;100464.09;108062;1286;21972;-63
2023/07/23 06:51:23;;;;;;;7.10;5.10;;;;;;;31.89;54.08;100465.88;108081;1280;22033;-61
2023/07/23 06:53:49;;;;;;;4.80;4.30;;;;;;;31.88;54.05;100461.88;108139;1288;22878;-61
2023/07/23 06:56:15;;;;;;;5.00;4.50;;;;;;;31.86;53.56;100462.74;108156;1288;21987;-60
2023/07/23 06:58:41;;;;;;;6.20;4.50;;;;;;;31.83;53.42;100464.52;108114;1288;21995;-68
2023/07/23 07:01:08;;;;;;;5.70;4.20;;;;;;;31.77;52.93;100470.21;107966;1283;221298;-60
2023/07/23 07:03:34;;;;;;;6.90;4.70;;;;;;;31.68;53.11;100477.06;108083;1288;21982;-68
2023/07/23 07:06:00;;;;;;;6.20;4.40;;;;;;;31.64;52.77;100484.36;108060;1281;22008;-68
2023/07/23 07:08:27;;;;;;;5.60;4.60;;;;;;;31.61;52.87;100482.30;108104;1288;22025;-62
2023/07/23 07:10:59;;;;;;;5.30;4.50;;;;;;;31.57;52.83;100477.03;108090;1288;21997;-69
2023/07/23 07:13:26;;;;;;;5.60;4.50;;;;;;;31.55;52.65;100473.81;108130;1288;21999;-68
2023/07/23 07:15:51;;;;;;;5.80;4.10;;;;;;;31.55;52.52;100479.96;108127;1283;21993;-61
2023/07/23 07:18:18;;;;;;;4.60;3.80;;;;;;;31.53;52.28;100488.14;108110;1286;22001;-68
2023/07/23 07:20:43;;;;;;;6.30;4.00;;;;;;;31.54;51.92;100491.33;108101;1288;21988;-61
2023/07/23 07:23:09;;;;;;;5.10;3.90;;;;;;;31.53;51.92;100491.95;108102;1289;21991;-69
2023/07/23 07:25:35;;;;;;;6.70;3.60;;;;;;;31.54;52.17;100491.54;108059;1287;21989;-61
2023/07/23 07:28:01;;;;;;;4.70;4.10;;;;;;;31.57;52.13;100492.06;108105;1284;21992;-61
2023/07/23 07:30:26;;;;;;;7.40;4.10;;;;;;;31.57;51.71;100492.46;108096;1283;22030;-61
2023/07/23 07:32:52;;;;;;;6.40;3.80;;;;;;;31.54;52.01;100491.14;108056;1283;22033;-69
2023/07/23 07:35:18;;;;;;;5.60;3.50;;;;;;;31.55;52.11;100488.33;108083;1287;24329;-61
2023/07/23 07:37:44;;;;;;;5.20;4.20;;;;;;;31.57;52.06;100491.54;108125;1283;22158;-65
2023/07/23 07:40:13;;;;;;;4.80;4.10;;;;;;;31.56;51.94;100493.44;108046;1286;22012;-60
2023/07/23 07:42:38;;;;;;;5.60;4.10;;;;;;;31.55;51.61;100502.30;108106;1284;21998;-69
2023/07/23 07:45:05;;;;;;;4.60;4.00;;;;;;;31.53;51.33;100507.21;108070;1287;22050;-61
2023/07/23 07:47:31;;;;;;;6.00;4.60;;;;;;;31.48;51.37;100508.07;108093;1280;21992;-61
2023/07/23 07:49:57;;;;;;;5.00;4.50;;;;;;;31.42;51.51;100509.55;108081;1286;21996;-69
2023/07/23 07:52:22;;;;;;;8.70;4.80;;;;;;;31.39;51.67;100519.04;108083;1287;21990;-61
2023/07/23 07:54:48;;;;;;;5.50;4.10;;;;;;;31.37;51.49;100521.42;108055;1287;21990;-61
2023/07/23 07:57:14;;;;;;;4.70;3.50;;;;;;;31.35;51.66;100522.09;108090;1284;21995;-61
2023/07/23 07:59:40;;;;;;;6.00;4.00;;;;;;;31.35;51.79;100518.75;108082;1288;21986;-70
2023/07/23 08:02:06;;;;;;;6.20;4.70;;;;;;;31.37;51.94;100518.89;108100;1283;23737;-67
2023/07/23 08:04:33;;;;;;;4.80;3.80;;;;;;;31.40;51.59;100515.38;108113;1278;22048;-61
2023/07/23 08:06:58;;;;;;;5.80;4.40;;;;;;;31.40;51.28;100513.23;108058;1283;21996;-68
2023/07/23 08:09:24;;;;;;;7.90;4.30;;;;;;;31.37;50.78;100510.72;108034;1287;21994;-62
2023/07/23 08:11:49;;;;;;;6.30;4.80;;;;;;;31.29;50.66;100503.73;108022;1283;22016;-61
2023/07/23 08:14:16;;;;;;;6.70;4.60;;;;;;;31.19;50.79;100494.77;108101;1288;22000;-68
2023/07/23 08:16:42;;;;;;;7.90;4.70;;;;;;;31.11;51.24;100487.17;108046;1287;21976;-61
2023/07/23 08:19:08;;;;;;;6.60;4.60;;;;;;;31.09;51.44;100479.92;108135;1283;22063;-69
2023/07/23 08:21:34;;;;;;;6.00;4.20;;;;;;;31.07;51.29;100476.36;108086;1284;21995;-61
2023/07/23 08:24:01;;;;;;;6.30;4.90;;;;;;;31.00;51.21;100481.13;108063;1288;22042;-69
2023/07/23 08:26:27;;;;;;;6.90;4.60;;;;;;;30.92;51.44;100490.27;108143;1281;21997;-61
2023/07/23 08:28:56;;;;;;;6.70;4.90;;;;;;;30.87;51.82;100503.59;108099;1278;22004;-61
2023/07/23 08:31:22;;;;;;;5.60;4.60;;;;;;;30.83;51.91;100506.89;108058;1284;22030;-69
2023/07/23 08:33:48;;;;;;;5.30;4.50;;;;;;;30.84;52.02;100511.32;108144;1279;23723;-68
2023/07/23 08:36:14;;;;;;;6.00;4.80;;;;;;;30.86;51.81;100525.78;107955;1287;21987;-68
2023/07/23 08:38:40;;;;;;;6.10;4.50;;;;;;;30.85;51.70;100540.16;108087;1288;22013;-66
2023/07/23 08:41:24;;;;;;;6.90;4.90;;;;;;;30.85;51.43;100540.51;108122;1284;22011;-61
2023/07/23 08:44:11;;;;;;;6.60;5.70;;;;;;;30.92;51.71;100542.73;108027;1288;22002;-68
2023/07/23 08:46:43;;;;;;;10.00;7.70;;;;;;;31.11;51.82;100544.20;108100;1284;23059;-68
2023/07/23 08:49:10;;;;;;;7.20;5.90;;;;;;;31.28;51.45;100543.89;108106;1280;22001;-61
2023/07/23 08:51:44;;;;;;;10.60;5.30;;;;;;;31.37;51.33;100539.76;108054;1284;21986;-69
2023/07/23 08:54:11;;;;;;;7.70;6.60;;;;;;;31.50;51.55;100531.23;108140;1283;22026;-68
2023/07/23 08:56:38;;;;;;;5.70;5.10;;;;;;;31.71;51.51;100527.17;108087;1283;21992;-62
2023/07/23 08:59:04;;;;;;;6.30;5.20;;;;;;;31.86;50.75;100522.65;108123;1286;22011;-67
2023/07/23 09:01:38;;;;;;;6.40;5.20;;;;;;;31.96;50.21;100512.73;108062;1278;21989;-70
2023/07/23 09:04:05;;;;;;;6.20;5.20;;;;;;;32.04;49.97;100512.49;108147;1281;21986;-69
2023/07/23 09:06:31;;;;;;;7.00;5.40;;;;;;;32.08;50.05;100518.80;108107;1288;22475;-61
2023/07/23 09:09:07;;;;;;;6.00;4.80;;;;;;;32.12;49.92;100523.13;108066;1288;22001;-61
2023/07/23 09:11:34;;;;;;;6.20;5.60;;;;;;;32.10;49.38;100522.27;108111;1278;22004;-68
2023/07/23 09:14:10;;;;;;;6.80;4.90;;;;;;;32.07;49.58;100523.41;108100;1288;21987;-62
2023/07/23 09:16:38;;;;;;;5.90;5.20;;;;;;;32.04;49.21;100517.26;108121;1287;21996;-61
2023/07/23 09:19:04;;;;;;;5.50;4.50;;;;;;;31.97;49.49;100509.08;108120;1283;22001;-61
2023/07/23 09:21:29;;;;;;;11.60;5.10;;;;;;;31.95;49.45;100511.61;108158;1284;21990;-69
2023/07/23 09:23:57;;;;;;;7.40;4.70;;;;;;;31.91;49.35;100516.70;108131;1288;21989;-61
2023/07/23 09:26:24;;;;;;;5.40;4.60;;;;;;;31.86;49.33;100516.65;108131;1288;22000;-62
2023/07/23 09:28:52;;;;;;;7.10;4.90;;;;;;;31.85;49.46;100513.82;108116;1283;22028;-68
2023/07/23 09:31:29;;;;;;;5.50;4.10;;;;;;;31.89;49.38;100509.48;108148;1288;21992;-61
2023/07/23 09:33:59;;;;;;;6.10;4.50;;;;;;;31.97;49.07;100512.13;108143;1275;22064;-69
2023/07/23 09:36:25;;;;;;;;;;;;;;;32.05;48.70;100522.19;108150;1286;22018;-69
2023/07/23 09:39:15;;;;;;;7.10;4.60;;;;;;;32.09;48.30;100525.63;108087;1288;22090;-68
2023/07/23 09:41:40;;;;;;;6.10;4.50;;;;;;;32.09;48.28;100509.48;108068;1288;22387;-68
2023/07/23 09:44:10;;;;;;;7.10;4.80;;;;;;;32.13;48.61;100495.63;108134;1288;21989;-61
2023/07/23 09:46:37;;;;;;;7.30;5.50;;;;;;;32.14;48.16;100502.25;108110;1277;21986;-64
2023/07/23 09:49:05;;;;;;;7.00;4.50;;;;;;;32.15;48.54;100506.61;108087;1287;22061;-67
2023/07/23 09:51:34;;;;;;;6.40;4.70;;;;;;;32.24;48.48;100507.52;107923;1288;21994;-66
2023/07/23 09:54:00;;;;;;;5.10;4.60;;;;;;;32.30;47.67;100516.61;107930;1288;22004;-66
2023/07/23 09:56:26;;;;;;;7.50;5.40;;;;;;;32.30;47.25;100522.56;108112;1280;21986;-60
2023/07/23 09:58:51;;;;;;;6.50;4.40;;;;;;;32.31;47.40;100517.90;107969;1284;21987;-66
2023/07/23 10:01:18;;;;;;;5.90;4.30;;;;;;;32.31;47.13;100514.80;107959;1287;22025;-60
2023/07/23 10:03:44;;;;;;;6.50;4.00;;;;;;;32.30;47.02;100511.64;108109;1283;21993;-68
2023/07/23 10:06:11;;;;;;;5.20;4.10;;;;;;;32.36;47.07;100504.59;108152;1277;21988;-59
2023/07/23 10:08:43;;;;;;;5.20;4.60;;;;;;;32.44;46.99;100494.85;108140;1286;22006;-60
2023/07/23 10:11:11;;;;;;;29.00;6.00;;;;;;;32.56;47.33;100484.30;108114;1283;22010;-66
2023/07/23 10:13:40;;;;;;;12.60;5.00;;;;;;;32.75;47.75;100487.31;108066;1277;21987;-66
2023/07/23 10:16:23;;;;;;;6.50;4.70;;;;;;;32.97;46.65;100500.77;108075;1283;21995;-59
2023/07/23 10:18:50;;;;;;;7.30;5.10;;;;;;;33.18;46.97;100511.35;108087;1288;22002;-60
2023/07/23 10:21:16;;;;;;;13.20;5.80;;;;;;;33.37;46.98;100511.17;107967;1288;22739;-60
2023/07/23 10:23:41;;;;;;;6.50;4.70;;;;;;;33.50;46.45;100511.80;107822;1285;21990;-68
2023/07/23 10:26:40;;;;;;;7.30;4.80;;;;;;;33.55;45.91;100514.72;108045;1288;22009;-67
2023/07/23 10:29:14;;;;;;;6.20;4.70;;;;;;;33.57;44.96;100520.34;107868;1288;21994;-67
2023/07/23 10:31:41;;;;;;;7.20;4.80;;;;;;;33.50;44.79;100519.62;108125;1286;22003;-59
2023/07/23 10:34:22;;;;;;;10.30;4.00;;;;;;;33.43;44.46;100515.84;108136;1283;22030;-59
2023/07/23 10:37:14;;;;;;;5.00;3.80;;;;;;;33.37;44.50;100514.98;108029;1277;22624;-68
2023/07/23 10:39:46;;;;;;;10.50;3.90;;;;;;;33.27;44.13;100514.95;108092;1283;21993;-67
2023/07/23 10:42:41;;;;;;;7.30;4.30;;;;;;;33.13;43.94;100512.95;108032;1283;22228;-60
2023/07/23 10:45:25;;;;;;;6.30;4.30;;;;;;;33.05;44.11;100506.70;108015;1280;21986;-60
2023/07/23 10:47:58;;;;;;;5.50;4.60;;;;;;;33.05;44.39;100506.15;108044;1287;22001;-62
2023/07/23 10:50:24;;;;;;;6.50;3.90;;;;;;;33.06;43.82;100507.33;108103;1284;22003;-67
2023/07/23 10:53:02;;;;;;;5.70;4.10;;;;;;;33.02;42.50;100500.25;108031;1286;23185;-68
2023/07/23 10:55:32;;;;;;;4.80;3.60;;;;;;;32.94;42.41;100493.12;107817;1288;21993;-68
2023/07/23 10:58:19;;;;;;;5.90;3.80;;;;;;;32.91;42.60;100492.13;108083;1281;21998;-60
2023/07/23 11:00:46;;;;;;;4.60;4.10;;;;;;;32.89;41.58;100490.58;108029;1280;21998;-60
2023/07/23 11:03:13;;;;;;;5.70;4.60;;;;;;;32.84;42.09;100484.20;108081;1284;22007;-67
2023/07/23 11:05:40;;;;;;;6.10;4.20;;;;;;;32.83;42.39;100488.25;108035;1288;22004;-68
2023/07/23 11:08:19;;;;;;;4.90;3.60;;;;;;;32.81;41.44;100481.96;108087;1288;21991;-68
2023/07/23 11:10:55;;;;;;;7.10;3.70;;;;;;;32.76;41.47;100474.61;108024;1281;21996;-60
2023/07/23 11:13:22;;;;;;;4.40;3.80;;;;;;;32.74;41.54;100479.57;108028;1287;21990;-67